Time;durP1;ratioP1;P1;durP2;ratioP2;P2;SDS_P1;SDS_P2;PMS_P1;PMS_P2;Temp;Humidity;BMP_temperature;BMP_pressure;BME280_temperature;BME280_humidity;BME280_pressure;Samples;Min_cycle;Max_cycle;Signal;HPM_P1;HPM_P2
2023/03/09 00:00:27;;;;;;;152.48;72.75;;;;;;;-1.15;100.00;98970.06;5055546;28;20061;-59
2023/03/09 00:02:52;;;;;;;157.25;72.18;;;;;;;-1.16;100.00;98971.75;5055509;28;20017;-59
2023/03/09 00:05:20;;;;;;;152.38;71.03;;;;;;;-1.14;100.00;98971.81;5054367;28;20144;-59
2023/03/09 00:07:47;;;;;;;163.80;74.20;;;;;;;-1.13;100.00;98967.66;5055300;28;20128;-58
2023/03/09 00:10:13;;;;;;;158.27;71.82;;;;;;;-1.15;100.00;98954.91;5055254;28;20113;-58
2023/03/09 00:12:39;;;;;;;172.95;76.65;;;;;;;-1.15;100.00;98957.44;5054837;28;20051;-58
2023/03/09 00:15:06;;;;;;;172.13;73.05;;;;;;;-1.15;100.00;98965.03;5054655;28;20469;-58
2023/03/09 00:17:31;;;;;;;161.15;73.15;;;;;;;-1.15;100.00;98965.03;5055145;28;20017;-58
2023/03/09 00:20:16;;;;;;;160.00;71.15;;;;;;;-1.14;100.00;98951.59;5054274;28;20031;-58
2023/03/09 00:22:41;;;;;;;151.88;68.80;;;;;;;-1.14;100.00;98949.06;5054996;28;20066;-58
2023/03/09 00:25:07;;;;;;;157.98;70.30;;;;;;;-1.14;100.00;98974.34;5054710;28;20029;-58
2023/03/09 00:27:33;;;;;;;161.77;70.70;;;;;;;-1.13;100.00;98968.50;5054435;28;20487;-58
2023/03/09 00:29:58;;;;;;;167.40;71.07;;;;;;;-1.13;100.00;98976.09;5054366;28;20115;-58
2023/03/09 00:32:23;;;;;;;156.25;68.53;;;;;;;-1.10;100.00;98998.13;5055179;28;20108;-58
2023/03/09 00:34:48;;;;;;;154.60;67.82;;;;;;;-1.12;100.00;98993.00;5054450;28;20033;-59
2023/03/09 00:37:14;;;;;;;154.25;65.85;;;;;;;-1.10;100.00;98995.59;5054378;28;20427;-58
2023/03/09 00:39:39;;;;;;;148.52;67.40;;;;;;;-1.13;100.00;98993.78;5054983;28;20020;-59
2023/03/09 00:42:05;;;;;;;145.13;66.88;;;;;;;-1.11;100.00;99001.44;5053895;28;20021;-58
2023/03/09 00:44:30;;;;;;;151.90;66.95;;;;;;;-1.11;100.00;99002.31;5054380;28;20033;-58
2023/03/09 00:46:55;;;;;;;152.73;67.97;;;;;;;-1.09;100.00;99015.88;5053829;28;20025;-58
2023/03/09 00:49:21;;;;;;;150.48;68.22;;;;;;;-1.10;100.00;99014.13;5054493;28;20411;-58
2023/03/09 00:51:46;;;;;;;148.10;67.20;;;;;;;-1.10;100.00;99016.66;5054395;28;20108;-58
2023/03/09 00:54:13;;;;;;;157.35;69.55;;;;;;;-1.10;100.00;99031.84;5053596;28;20439;-58
2023/03/09 00:56:38;;;;;;;159.75;69.50;;;;;;;-1.09;100.00;99020.94;5054029;28;20029;-58
2023/03/09 00:59:04;;;;;;;162.43;71.55;;;;;;;-1.09;100.00;99031.03;5054049;28;20036;-58
2023/03/09 01:01:30;;;;;;;154.68;70.47;;;;;;;-1.09;100.00;99031.03;5053697;28;20468;-58
2023/03/09 01:03:55;;;;;;;162.80;71.43;;;;;;;-1.08;100.00;99037.00;5053638;28;20115;-58
2023/03/09 01:06:21;;;;;;;163.10;72.18;;;;;;;-1.09;100.00;99036.09;5054078;28;20044;-58
2023/03/09 01:08:47;;;;;;;170.70;73.88;;;;;;;-1.09;100.00;99046.22;5053741;28;20021;-58
2023/03/09 01:11:14;;;;;;;170.25;73.85;;;;;;;-1.08;100.00;99047.09;5053787;28;20028;-59
2023/03/09 01:13:39;;;;;;;163.68;75.72;;;;;;;-1.08;100.00;99063.13;5054102;28;20028;-58
2023/03/09 01:16:05;;;;;;;166.85;74.68;;;;;;;-1.08;100.00;99083.34;5053437;28;20033;-58
2023/03/09 01:18:30;;;;;;;159.95;73.82;;;;;;;-1.06;100.00;99084.31;5053934;28;20385;-58
2023/03/09 01:20:58;;;;;;;178.82;76.95;;;;;;;-1.08;100.00;99082.50;5053693;28;20022;-58
2023/03/09 01:23:23;;;;;;;167.45;76.30;;;;;;;-1.06;100.00;99084.31;5053665;28;20033;-59
2023/03/09 01:25:49;;;;;;;171.93;77.18;;;;;;;-1.07;100.00;99076.63;5053682;28;20102;-58
2023/03/09 01:28:14;;;;;;;168.95;73.10;;;;;;;-1.07;100.00;99080.03;5053613;28;20112;-58
2023/03/09 01:30:39;;;;;;;168.27;71.25;;;;;;;-1.06;100.00;99078.34;5053493;28;20028;-58
2023/03/09 01:33:05;;;;;;;170.75;72.93;;;;;;;-1.07;100.00;99087.63;5053451;28;20428;-58
2023/03/09 01:35:30;;;;;;;170.90;73.68;;;;;;;-1.03;100.00;99101.28;5053928;28;20466;-58
2023/03/09 01:37:56;;;;;;;165.07;71.32;;;;;;;-1.04;100.00;99104.59;5052941;28;20106;-58
2023/03/09 01:40:24;;;;;;;175.32;74.20;;;;;;;-1.03;100.00;99111.41;5053510;28;20369;-58
2023/03/09 01:43:17;;;;;;;67.88;20.58;;;;;;;-0.93;100.00;99111.03;5053622;28;20037;-58
2023/03/09 01:45:43;;;;;;;166.10;71.22;;;;;;;-0.98;100.00;99109.06;5053541;28;20029;-58
2023/03/09 01:48:08;;;;;;;164.95;70.57;;;;;;;-0.98;100.00;99109.06;5053339;28;20025;-58
2023/03/09 01:50:35;;;;;;;167.95;71.13;;;;;;;-0.98;100.00;99111.59;5053074;28;20025;-58
2023/03/09 01:53:05;;;;;;;163.63;70.55;;;;;;;-0.98;100.00;99114.13;5052859;28;20475;-58
2023/03/09 01:55:36;;;;;;;165.20;70.72;;;;;;;-0.97;100.00;99118.38;5053362;28;20094;-58
2023/03/09 01:58:07;;;;;;;169.77;68.70;;;;;;;-0.96;100.00;99127.72;5052773;28;20097;-58
2023/03/09 02:00:35;;;;;;;178.10;70.70;;;;;;;-0.95;100.00;99121.88;5053333;28;20020;-58
2023/03/09 02:03:05;;;;;;;168.05;70.32;;;;;;;-0.93;100.00;99137.97;5052438;28;20035;-58
2023/03/09 02:05:40;;;;;;;167.15;72.15;;;;;;;-0.93;100.00;99132.91;5052420;28;20439;-58
2023/03/09 02:08:07;;;;;;;173.88;69.85;;;;;;;-0.93;100.00;99140.50;5052767;28;20095;-58
2023/03/09 02:10:36;;;;;;;182.77;74.00;;;;;;;-0.94;100.00;99141.28;5053323;28;20025;-58
2023/03/09 02:13:07;;;;;;;158.77;69.85;;;;;;;-0.88;100.00;99151.69;5052371;28;20040;-58
2023/03/09 02:15:33;;;;;;;160.45;69.22;;;;;;;-0.88;100.00;99149.16;5052788;28;20476;-58
2023/03/09 02:17:58;;;;;;;169.25;70.95;;;;;;;-0.85;100.00;99141.75;5052587;28;20029;-58
2023/03/09 02:20:33;;;;;;;173.18;73.25;;;;;;;-0.85;100.00;99141.75;5052334;28;20074;-58
2023/03/09 02:22:58;;;;;;;173.65;70.53;;;;;;;-0.86;100.00;99140.00;5052603;28;20055;-58
2023/03/09 02:25:32;;;;;;;180.85;73.47;;;;;;;-0.84;100.00;99133.34;5052605;28;20100;-58
2023/03/09 02:27:59;;;;;;;185.70;72.38;;;;;;;-0.84;100.00;99133.34;5052439;28;20097;-58
2023/03/09 02:30:28;;;;;;;184.02;76.15;;;;;;;-0.85;100.00;99157.78;5052850;28;20033;-58
2023/03/09 02:33:27;;;;;;;187.73;76.90;;;;;;;-0.79;100.00;99167.31;5051873;28;20469;-58
2023/03/09 02:35:55;;;;;;;186.57;74.65;;;;;;;-0.86;100.00;99158.56;5047321;28;20063;-57
2023/03/09 02:38:21;;;;;;;199.98;77.95;;;;;;;-0.85;100.00;99159.44;5052726;28;20025;-58
2023/03/09 02:40:48;;;;;;;196.20;77.63;;;;;;;-0.86;100.00;99156.03;5052081;28;20032;-58
2023/03/09 02:43:17;;;;;;;201.45;77.28;;;;;;;-0.85;100.00;99162.84;5051886;28;20115;-58
2023/03/09 02:45:42;;;;;;;209.40;79.85;;;;;;;-0.84;100.00;99163.69;5052807;28;20032;-59
2023/03/09 02:48:08;;;;;;;214.43;81.80;;;;;;;-0.82;100.00;99171.38;5051906;28;20065;-59
2023/03/09 02:50:33;;;;;;;215.52;79.57;;;;;;;-0.81;100.00;99168.03;5052463;28;20077;-58
2023/03/09 02:53:00;;;;;;;218.57;81.88;;;;;;;-0.82;100.00;99177.28;5052160;28;20385;-58
2023/03/09 02:55:25;;;;;;;217.70;81.17;;;;;;;-0.82;100.00;99173.91;5051952;28;20033;-58
2023/03/09 02:57:50;;;;;;;226.95;85.00;;;;;;;-0.81;100.00;99163.84;5052095;28;20291;-58
2023/03/09 03:00:16;;;;;;;81.22;25.75;;;;;;;-0.71;100.00;99171.09;5052079;28;20033;-60
2023/03/09 03:02:41;;;;;;;225.02;84.90;;;;;;;-0.80;100.00;99183.31;5051757;28;20027;-58
2023/03/09 03:05:07;;;;;;;215.05;82.47;;;;;;;-0.81;100.00;99189.16;5051926;28;20048;-59
2023/03/09 03:07:33;;;;;;;241.23;88.25;;;;;;;-0.80;100.00;99182.41;5051986;28;20053;-59
2023/03/09 03:09:58;;;;;;;236.40;85.15;;;;;;;-0.79;100.00;99181.63;5051744;28;20483;-59
2023/03/09 03:12:23;;;;;;;236.48;85.32;;;;;;;-0.79;100.00;99172.38;5052342;28;20048;-59
2023/03/09 03:14:49;;;;;;;243.88;89.15;;;;;;;-0.81;100.00;99163.84;5055580;28;20140;-58
2023/03/09 03:17:14;;;;;;;237.50;87.63;;;;;;;-0.81;100.00;99173.97;5056005;28;20052;-59
2023/03/09 03:19:39;;;;;;;245.98;89.30;;;;;;;-0.80;100.00;99183.31;5056458;28;20033;-59
2023/03/09 03:22:05;;;;;;;247.45;90.68;;;;;;;-0.81;100.00;99181.56;5055517;28;20092;-59
2023/03/09 03:24:35;;;;;;;256.90;94.55;;;;;;;-0.82;100.00;99184.88;5056143;28;20457;-59
2023/03/09 03:27:01;;;;;;;267.70;95.38;;;;;;;-0.82;100.00;99194.16;5055726;28;20495;-59
2023/03/09 03:29:26;;;;;;;255.25;96.35;;;;;;;-0.83;100.00;99203.38;5055822;28;20025;-59
2023/03/09 03:31:51;;;;;;;249.00;92.88;;;;;;;-0.84;100.00;99205.06;5055756;28;20057;-59
2023/03/09 03:34:16;;;;;;;264.33;96.47;;;;;;;-0.85;100.00;99207.50;5055774;28;20480;-58
2023/03/09 03:36:42;;;;;;;258.02;94.22;;;;;;;-0.84;100.00;99216.81;5055661;28;20055;-59
2023/03/09 03:39:08;;;;;;;248.80;93.97;;;;;;;-0.84;100.00;99214.28;5055432;28;20043;-59
2023/03/09 03:41:34;;;;;;;260.13;93.68;;;;;;;-0.84;100.00;99227.81;5055820;28;20017;-59
2023/03/09 03:43:59;;;;;;;274.70;98.97;;;;;;;-0.84;100.00;99227.81;5055223;28;20032;-59
2023/03/09 03:46:25;;;;;;;253.52;97.93;;;;;;;-0.82;100.00;99232.94;5055807;28;20025;-59
2023/03/09 03:48:50;;;;;;;256.23;96.85;;;;;;;-0.79;100.00;99238.13;5055636;28;20104;-59
2023/03/09 03:51:15;;;;;;;254.40;94.45;;;;;;;-0.78;100.00;99250.00;5055015;28;20033;-59
2023/03/09 03:53:41;;;;;;;263.98;96.97;;;;;;;-0.78;100.00;99247.47;5055407;28;20024;-59
2023/03/09 03:56:06;;;;;;;234.50;92.30;;;;;;;-0.72;100.00;99255.38;5055246;28;20476;-59
2023/03/09 03:58:32;;;;;;;251.90;96.15;;;;;;;-0.77;100.00;99249.22;5055255;28;20037;-59
2023/03/09 04:00:57;;;;;;;272.05;97.10;;;;;;;-0.74;100.00;99261.16;5055109;28;20029;-59
2023/03/09 04:03:22;;;;;;;256.75;97.10;;;;;;;-0.73;100.00;99257.81;5055674;28;20060;-59
2023/03/09 04:05:48;;;;;;;238.48;94.65;;;;;;;-0.70;100.00;99263.91;5054418;28;20044;-59
2023/03/09 04:08:13;;;;;;;258.70;99.20;;;;;;;-0.70;100.00;99263.03;5055040;28;20037;-59
2023/03/09 04:10:39;;;;;;;251.85;97.63;;;;;;;-0.74;100.00;99264.53;5055383;28;20036;-58
2023/03/09 04:13:05;;;;;;;252.88;94.95;;;;;;;-0.70;100.00;99274.03;5054080;28;20025;-59
2023/03/09 04:15:32;;;;;;;259.60;99.55;;;;;;;-0.72;100.00;99282.34;5055379;28;20163;-58
2023/03/09 04:17:57;;;;;;;98.53;27.58;;;;;;;-0.62;100.00;99286.16;5054500;28;20052;-59
2023/03/09 04:20:22;;;;;;;276.60;103.85;;;;;;;-0.71;100.00;99281.53;5055054;28;20098;-59
2023/03/09 04:22:51;;;;;;;283.67;106.43;;;;;;;-0.73;100.00;99283.13;5055215;28;20495;-59
2023/03/09 04:25:16;;;;;;;301.27;106.97;;;;;;;-0.73;100.00;99283.97;5053565;28;20037;-59
2023/03/09 04:27:42;;;;;;;290.08;110.85;;;;;;;-0.74;100.00;99286.44;5054857;28;20337;-58
2023/03/09 04:30:09;;;;;;;290.58;111.20;;;;;;;-0.75;100.00;99287.22;5054828;28;20100;-59
2023/03/09 04:32:35;;;;;;;296.67;113.37;;;;;;;-0.76;100.00;99283.84;5054259;28;20098;-59
2023/03/09 04:35:00;;;;;;;299.02;112.60;;;;;;;-0.76;100.00;99293.97;5054395;28;20420;-59
2023/03/09 04:37:26;;;;;;;289.73;113.13;;;;;;;-0.78;100.00;99287.09;5054904;28;20029;-59
2023/03/09 04:39:51;;;;;;;295.80;119.13;;;;;;;-0.77;100.00;99292.22;5054306;28;20035;-59
2023/03/09 04:42:17;;;;;;;288.10;114.13;;;;;;;-0.78;100.00;99295.53;5054195;28;20345;-59
2023/03/09 04:44:42;;;;;;;295.50;114.80;;;;;;;-0.77;100.00;99294.75;5054969;28;20033;-59
2023/03/09 04:47:10;;;;;;;299.90;114.63;;;;;;;-0.76;100.00;99304.06;5053830;28;20028;-59
2023/03/09 04:49:36;;;;;;;291.73;114.78;;;;;;;-0.75;100.00;99315.94;5054403;28;20032;-59
2023/03/09 04:52:01;;;;;;;296.67;115.90;;;;;;;-0.74;100.00;99321.84;5054081;28;20033;-59
2023/03/09 04:54:26;;;;;;;295.88;117.78;;;;;;;-0.73;100.00;99324.47;5053793;28;20025;-59
2023/03/09 04:56:52;;;;;;;295.02;116.30;;;;;;;-0.75;100.00;99328.59;5054480;28;20055;-59
2023/03/09 04:59:17;;;;;;;292.13;114.78;;;;;;;-0.73;100.00;99334.56;5053993;28;20112;-59
2023/03/09 05:01:42;;;;;;;296.55;116.30;;;;;;;-0.74;100.00;99337.88;5053829;28;20166;-59
2023/03/09 05:04:09;;;;;;;290.88;114.90;;;;;;;-0.72;100.00;99338.84;5053537;28;20067;-58
2023/03/09 05:06:34;;;;;;;295.15;115.90;;;;;;;-0.73;100.00;99334.56;5054351;28;20071;-59
2023/03/09 05:09:01;;;;;;;293.48;117.30;;;;;;;-0.74;100.00;99337.88;5053513;28;20033;-58
2023/03/09 05:11:26;;;;;;;289.07;111.47;;;;;;;-0.75;100.00;99341.25;5054067;28;20482;-59
2023/03/09 05:13:52;;;;;;;306.33;115.80;;;;;;;-0.73;100.00;99343.84;5054565;28;20063;-59
2023/03/09 05:16:17;;;;;;;295.88;115.32;;;;;;;-0.75;100.00;99345.41;5053091;28;20098;-59
2023/03/09 05:18:42;;;;;;;298.40;118.38;;;;;;;-0.76;100.00;99362.25;5054133;28;20029;-58
2023/03/09 05:21:08;;;;;;;292.30;117.30;;;;;;;-0.76;100.00;99364.78;5053265;28;20083;-59
2023/03/09 05:23:36;;;;;;;291.75;116.50;;;;;;;-0.80;100.00;99357.84;5053701;28;20389;-59
2023/03/09 05:26:06;;;;;;;125.43;32.58;;;;;;;-0.70;100.00;99365.09;5053586;28;20063;-59
2023/03/09 05:28:32;;;;;;;276.25;111.00;;;;;;;-0.80;100.00;99367.97;5053277;28;20499;-59
2023/03/09 05:30:57;;;;;;;274.13;113.80;;;;;;;-0.79;100.00;99368.81;5053366;28;20029;-59
2023/03/09 05:33:23;;;;;;;277.35;113.30;;;;;;;-0.82;100.00;99363.63;5053937;28;20025;-58
2023/03/09 05:35:50;;;;;;;270.77;108.15;;;;;;;-0.81;100.00;99366.22;5052960;28;20028;-59
2023/03/09 05:38:15;;;;;;;264.45;110.53;;;;;;;-0.80;100.00;99373.03;5052380;28;20024;-59
2023/03/09 05:40:41;;;;;;;274.75;109.55;;;;;;;-0.79;100.00;99372.22;5053942;28;20509;-59
2023/03/09 05:43:06;;;;;;;270.00;110.03;;;;;;;-0.80;100.00;99360.38;5052898;28;20024;-59
2023/03/09 05:45:31;;;;;;;270.48;108.18;;;;;;;-0.78;100.00;99355.38;5053366;28;20028;-59
2023/03/09 05:47:57;;;;;;;247.25;102.43;;;;;;;-0.75;100.00;99361.47;5053396;28;20087;-59
2023/03/09 05:50:22;;;;;;;254.48;101.03;;;;;;;-0.76;100.00;99357.19;5053057;28;20361;-59
2023/03/09 05:52:47;;;;;;;262.67;103.38;;;;;;;-0.75;100.00;99361.47;5053307;28;20047;-59
2023/03/09 05:55:13;;;;;;;254.52;101.57;;;;;;;-0.73;100.00;99364.94;5053319;28;20055;-58
2023/03/09 05:57:38;;;;;;;253.30;104.18;;;;;;;-0.68;100.00;99373.63;5053151;28;20020;-58
2023/03/09 06:00:06;;;;;;;260.02;104.47;;;;;;;-0.68;100.00;99376.16;5052960;28;20488;-59
2023/03/09 06:02:32;;;;;;;;;;;;;;;-0.56;100.00;99395.28;5053576;28;20040;-59
2023/03/09 06:04:58;;;;;;;261.35;101.93;;;;;;;-0.65;100.00;99402.41;5052306;28;19917;-58
2023/03/09 06:07:24;;;;;;;261.90;103.70;;;;;;;-0.64;100.00;99399.97;5052988;28;20465;-58
2023/03/09 06:09:49;;;;;;;256.58;103.03;;;;;;;-0.64;100.00;99401.63;5053146;28;20083;-58
2023/03/09 06:12:17;;;;;;;244.13;101.80;;;;;;;-0.59;100.00;99393.47;5052241;28;20032;-58
2023/03/09 06:14:42;;;;;;;243.70;101.43;;;;;;;-0.58;100.00;99386.75;5053131;28;20025;-58
2023/03/09 06:17:07;;;;;;;251.27;103.82;;;;;;;-0.54;100.00;99397.09;5052797;28;20484;-58
2023/03/09 06:19:33;;;;;;;253.00;102.90;;;;;;;-0.53;100.00;99403.03;5052420;28;20021;-59
2023/03/09 06:21:58;;;;;;;239.80;98.55;;;;;;;-0.48;100.00;99415.91;5052732;28;20027;-58
2023/03/09 06:24:23;;;;;;;250.38;101.65;;;;;;;-0.47;100.00;99415.13;5052936;28;20033;-59
2023/03/09 06:26:49;;;;;;;244.23;100.97;;;;;;;-0.43;100.00;99415.34;5052750;28;20084;-59
2023/03/09 06:29:14;;;;;;;246.93;100.60;;;;;;;-0.43;100.00;99415.34;5052806;28;20446;-59
2023/03/09 06:31:39;;;;;;;258.35;103.78;;;;;;;-0.39;100.00;99429.94;5052432;28;20031;-59
2023/03/09 06:34:04;;;;;;;246.63;102.60;;;;;;;-0.37;100.00;99440.13;5052262;28;20115;-58
2023/03/09 06:36:30;;;;;;;242.52;98.35;;;;;;;-0.37;100.00;99448.56;5052820;28;20017;-58
2023/03/09 06:38:55;;;;;;;244.70;99.13;;;;;;;-0.30;100.00;99448.88;5051897;28;20493;-58
2023/03/09 06:41:29;;;;;;;241.90;98.13;;;;;;;-0.27;100.00;99449.03;5052368;28;20021;-59
2023/03/09 06:43:55;;;;;;;242.48;98.22;;;;;;;-0.27;100.00;99451.56;5052590;28;20025;-59
2023/03/09 06:46:21;;;;;;;237.45;99.07;;;;;;;-0.30;100.00;99443.81;5052109;28;20528;-59
2023/03/09 06:48:46;;;;;;;238.93;95.50;;;;;;;-0.30;100.00;99449.75;5052055;28;20140;-59
2023/03/09 06:51:11;;;;;;;247.48;97.65;;;;;;;-0.27;100.00;99441.44;5052284;28;20108;-59
2023/03/09 06:53:37;;;;;;;255.93;97.68;;;;;;;-0.30;100.00;99452.28;5052102;28;20029;-59
2023/03/09 06:56:03;;;;;;;236.02;96.70;;;;;;;-0.19;100.00;99457.91;5052046;28;20037;-58
2023/03/09 06:58:30;;;;;;;233.45;95.68;;;;;;;-0.21;100.00;99472.13;5052577;28;20025;-58
2023/03/09 07:00:55;;;;;;;242.77;94.65;;;;;;;-0.23;100.00;99483.88;5051712;28;20102;-58
2023/03/09 07:03:21;;;;;;;234.15;94.18;;;;;;;-0.19;100.00;99491.69;5052251;28;20100;-58
2023/03/09 07:05:46;;;;;;;236.80;94.03;;;;;;;-0.16;100.00;99496.03;5052246;28;20051;-59
2023/03/09 07:08:12;;;;;;;233.07;94.90;;;;;;;-0.15;100.00;99507.91;5051475;28;20024;-59
2023/03/09 07:10:37;;;;;;;244.38;94.30;;;;;;;-0.15;100.00;99512.97;5052675;28;20095;-59
2023/03/09 07:13:03;;;;;;;223.55;91.40;;;;;;;-0.16;100.00;99511.22;5052045;28;20021;-59
2023/03/09 07:15:28;;;;;;;241.48;93.30;;;;;;;-0.14;100.00;99522.31;5051559;28;20033;-58
2023/03/09 07:17:54;;;;;;;231.10;92.43;;;;;;;-0.17;100.00;99542.41;5052101;28;20112;-59
2023/03/09 07:20:23;;;;;;;224.95;92.45;;;;;;;-0.20;100.00;99550.69;5052329;28;20027;-58
2023/03/09 07:22:48;;;;;;;239.40;92.38;;;;;;;-0.18;100.00;99550.81;5051483;28;20029;-59
2023/03/09 07:25:13;;;;;;;232.70;91.65;;;;;;;-0.14;100.00;99551.81;5052080;28;20052;-58
2023/03/09 07:27:39;;;;;;;232.52;91.68;;;;;;;-0.14;100.00;99549.28;5052157;28;20105;-58
2023/03/09 07:30:05;;;;;;;233.90;89.78;;;;;;;-0.16;100.00;99551.72;5051164;28;20025;-59
2023/03/09 07:32:30;;;;;;;222.98;89.35;;;;;;;-0.14;100.00;99550.16;5052050;28;20048;-59
2023/03/09 07:34:55;;;;;;;238.18;94.70;;;;;;;-0.14;100.00;99550.16;5051236;28;20033;-59
2023/03/09 07:37:21;;;;;;;235.02;89.97;;;;;;;-0.10;100.00;99562.19;5051724;28;20461;-59
2023/03/09 07:39:46;;;;;;;227.93;88.75;;;;;;;-0.07;100.00;99567.41;5052152;28;20025;-58
2023/03/09 07:42:11;;;;;;;222.85;87.93;;;;;;;-0.08;100.00;99580.88;5051427;28;20025;-58
2023/03/09 07:44:36;;;;;;;218.20;85.68;;;;;;;-0.10;100.00;99577.38;5052039;28;20040;-59
2023/03/09 07:47:02;;;;;;;217.32;86.97;;;;;;;-0.13;100.00;99577.25;5051833;28;20394;-59
2023/03/09 07:49:27;;;;;;;215.35;85.53;;;;;;;-0.15;100.00;99575.41;5051459;28;20025;-59
2023/03/09 07:51:56;;;;;;;213.88;85.40;;;;;;;-0.10;100.00;99579.91;5051946;28;20029;-58
2023/03/09 07:54:21;;;;;;;221.32;87.30;;;;;;;-0.07;100.00;99572.47;5051866;28;20037;-58
2023/03/09 07:56:50;;;;;;;205.00;84.82;;;;;;;-0.02;100.00;99578.63;5051294;28;20025;-59
2023/03/09 07:59:16;;;;;;;203.25;84.93;;;;;;;0.01;100.00;99575.38;5051358;28;20021;-58
2023/03/09 08:01:42;;;;;;;201.25;84.55;;;;;;;0.12;100.00;99593.69;5055030;28;20495;-58
2023/03/09 08:04:07;;;;;;;199.63;83.63;;;;;;;0.14;100.00;99597.16;5054562;28;20033;-58
2023/03/09 08:06:33;;;;;;;193.32;83.30;;;;;;;0.16;100.00;99596.44;5055258;28;20103;-58
2023/03/09 08:08:59;;;;;;;194.60;83.53;;;;;;;0.15;100.00;99596.38;5055234;28;20032;-58
2023/03/09 08:11:24;;;;;;;192.40;82.97;;;;;;;0.14;100.00;99597.16;5054809;28;20377;-58
2023/03/09 08:13:49;;;;;;;188.90;80.63;;;;;;;0.19;100.00;99603.31;5055238;28;20021;-58
2023/03/09 08:16:14;;;;;;;188.43;83.80;;;;;;;0.27;100.00;99614.75;5054841;28;20060;-58
2023/03/09 08:18:40;;;;;;;189.85;84.15;;;;;;;0.28;100.00;99631.66;5054437;28;20025;-58
2023/03/09 08:21:08;;;;;;;183.20;81.18;;;;;;;0.25;100.00;99630.66;5055075;28;20025;-58
2023/03/09 08:23:37;;;;;;;184.70;83.40;;;;;;;0.29;100.00;99628.34;5055290;28;20021;-58
2023/03/09 08:26:03;;;;;;;181.95;81.97;;;;;;;0.25;100.00;99625.59;5054025;28;20033;-58
2023/03/09 08:28:29;;;;;;;181.77;80.60;;;;;;;0.31;100.00;99624.25;5054966;28;20118;-58
2023/03/09 08:30:54;;;;;;;182.70;82.93;;;;;;;0.32;100.00;99628.53;5054665;28;20064;-59
2023/03/09 08:33:20;;;;;;;174.05;78.75;;;;;;;0.38;100.00;99629.63;5054136;28;20056;-58
2023/03/09 08:35:45;;;;;;;177.48;78.53;;;;;;;0.44;100.00;99634.97;5054948;28;20411;-58
2023/03/09 08:38:10;;;;;;;180.60;79.38;;;;;;;0.47;100.00;99633.47;5054133;28;20028;-58
2023/03/09 08:40:37;;;;;;;171.20;78.97;;;;;;;0.52;100.00;99651.47;5054782;28;20490;-58
2023/03/09 08:43:04;;;;;;;175.25;81.53;;;;;;;0.56;100.00;99640.69;5054390;28;20491;-58
2023/03/09 08:45:29;;;;;;;165.35;74.32;;;;;;;0.58;100.00;99648.34;5054080;28;20033;-58
2023/03/09 08:47:54;;;;;;;163.25;76.22;;;;;;;0.65;100.00;99648.75;5053931;28;20040;-58
2023/03/09 08:50:19;;;;;;;159.23;74.80;;;;;;;0.75;100.00;99655.16;5054819;28;20028;-58
2023/03/09 08:52:46;;;;;;;160.93;74.00;;;;;;;0.81;100.00;99654.56;5054118;28;20380;-58
2023/03/09 08:55:11;;;;;;;152.13;72.97;;;;;;;1.03;100.00;99646.34;5053878;28;20372;-59
2023/03/09 08:57:37;;;;;;;152.73;74.20;;;;;;;1.24;100.00;99654.13;5054454;28;20033;-58
2023/03/09 09:00:04;;;;;;;143.30;70.88;;;;;;;1.35;100.00;99659.69;5053461;28;20040;-58
2023/03/09 09:02:29;;;;;;;143.57;69.05;;;;;;;1.44;100.00;99642.34;5054022;28;20118;-58
2023/03/09 09:04:55;;;;;;;134.10;66.25;;;;;;;1.43;100.00;99667.69;5053719;28;20088;-58
2023/03/09 09:07:20;;;;;;;136.23;67.18;;;;;;;1.63;100.00;99684.72;5053579;28;20040;-59
2023/03/09 09:09:46;;;;;;;130.85;66.05;;;;;;;1.68;100.00;99686.59;5054109;28;20021;-58
2023/03/09 09:12:11;;;;;;;132.05;64.55;;;;;;;1.71;100.00;99686.75;5053843;28;20025;-58
2023/03/09 09:14:38;;;;;;;130.18;66.35;;;;;;;1.75;100.00;99686.94;5053281;28;20033;-58
2023/03/09 09:17:08;;;;;;;125.28;64.93;;;;;;;1.71;100.00;99689.31;5053858;28;20028;-58
2023/03/09 09:19:34;;;;;;;125.38;65.03;;;;;;;1.69;100.00;99701.03;5054260;28;20087;-58
2023/03/09 09:21:59;;;;;;;123.10;63.92;;;;;;;1.74;100.00;99714.84;5053016;28;20056;-58
2023/03/09 09:24:25;;;;;;;131.02;65.95;;;;;;;1.71;100.00;99712.16;5054015;28;20102;-58
2023/03/09 09:26:53;;;;;;;125.25;64.28;;;;;;;1.84;100.00;99706.84;5054003;28;20029;-58
2023/03/09 09:29:19;;;;;;;128.32;65.10;;;;;;;1.59;100.00;99710.78;5053144;28;20060;-59
2023/03/09 09:31:44;;;;;;;123.68;63.22;;;;;;;1.77;100.00;99693.00;5053667;28;20075;-58
2023/03/09 09:34:09;;;;;;;131.70;65.88;;;;;;;1.83;100.00;99689.84;5053332;28;20052;-58
2023/03/09 09:36:35;;;;;;;128.10;64.00;;;;;;;1.95;100.00;99685.34;5052856;28;20029;-58
2023/03/09 09:39:01;;;;;;;119.55;62.00;;;;;;;2.07;100.00;99689.25;5053538;28;20052;-58
2023/03/09 09:41:44;;;;;;;117.72;62.15;;;;;;;2.36;100.00;99693.06;5053073;28;20029;-58
2023/03/09 09:44:18;;;;;;;111.10;58.67;;;;;;;2.22;100.00;99694.13;5052929;28;20063;-58
2023/03/09 09:46:46;;;;;;;132.80;66.15;;;;;;;2.23;100.00;99706.03;5053745;28;20029;-58
2023/03/09 09:49:19;;;;;;;106.25;58.55;;;;;;;2.10;100.00;99714.78;5052650;28;20033;-59
2023/03/09 09:51:50;;;;;;;114.68;60.38;;;;;;;1.97;100.00;99716.75;5053102;28;20443;-58
2023/03/09 09:54:21;;;;;;;117.68;60.08;;;;;;;1.90;100.00;99722.38;5053004;28;20464;-59
2023/03/09 09:56:55;;;;;;;122.35;63.63;;;;;;;1.79;100.00;99716.78;5052646;28;20055;-58
2023/03/09 09:59:38;;;;;;;119.55;62.33;;;;;;;1.74;100.00;99718.25;5053037;28;20477;-58
2023/03/09 10:02:09;;;;;;;125.45;61.97;;;;;;;1.56;100.00;99720.81;5052907;28;20090;-58
2023/03/09 10:04:45;;;;;;;120.10;63.25;;;;;;;1.55;100.00;99723.25;5052018;28;20481;-58
2023/03/09 10:07:20;;;;;;;125.20;61.78;;;;;;;1.59;100.00;99726.03;5052465;28;20047;-60
2023/03/09 10:10:01;;;;;;;129.30;63.55;;;;;;;1.73;100.00;99723.25;5052618;28;20021;-58
2023/03/09 10:12:27;;;;;;;123.88;62.63;;;;;;;1.71;100.00;99724.88;5052884;28;20017;-58
2023/03/09 10:14:52;;;;;;;122.97;61.97;;;;;;;1.85;100.00;99718.75;5052960;28;20032;-58
2023/03/09 10:17:29;;;;;;;125.05;62.85;;;;;;;1.91;100.00;99719.03;5051999;28;20021;-59
2023/03/09 10:20:01;;;;;;;114.57;60.33;;;;;;;1.92;100.00;99725.84;5052405;28;20029;-58
2023/03/09 10:22:27;;;;;;;125.05;64.07;;;;;;;2.00;100.00;99725.31;5052287;28;20056;-58
2023/03/09 10:24:55;;;;;;;114.60;59.88;;;;;;;2.00;100.00;99735.50;5051962;28;20104;-58
2023/03/09 10:27:30;;;;;;;123.18;61.35;;;;;;;2.26;100.00;99732.47;5052922;28;20096;-58
2023/03/09 10:30:11;;;;;;;123.78;63.30;;;;;;;2.29;100.00;99719.88;5052390;28;20104;-58
2023/03/09 10:32:39;;;;;;;120.40;62.40;;;;;;;2.18;100.00;99718.53;5051948;28;20476;-58
2023/03/09 10:35:42;;;;;;;124.97;65.78;;;;;;;2.23;100.00;99714.53;5052060;28;20068;-58
2023/03/09 10:38:22;;;;;;;126.55;66.13;;;;;;;2.21;100.00;99703.44;5045170;28;20067;-58
2023/03/09 10:40:53;;;;;;;133.52;68.38;;;;;;;2.21;100.00;99711.06;5052637;28;20032;-58
2023/03/09 10:43:26;;;;;;;132.13;67.05;;;;;;;2.38;100.00;99713.50;5052605;28;20079;-58
2023/03/09 10:45:53;;;;;;;133.65;66.88;;;;;;;2.57;100.00;99723.66;5051756;28;20063;-58
2023/03/09 10:48:27;;;;;;;123.10;65.20;;;;;;;2.54;100.00;99731.13;5052064;28;20431;-58
2023/03/09 10:50:57;;;;;;;120.85;63.92;;;;;;;2.61;100.00;99722.97;5052449;28;20102;-59
2023/03/09 10:53:38;;;;;;;115.18;61.95;;;;;;;2.73;100.00;99721.78;5051696;28;20109;-58
2023/03/09 10:56:06;;;;;;;125.95;64.40;;;;;;;2.53;100.00;99726.88;5052079;28;20025;-58
2023/03/09 10:58:32;;;;;;;117.57;63.42;;;;;;;2.52;100.00;99730.22;5052548;28;20105;-58
2023/03/09 11:01:05;;;;;;;126.82;65.63;;;;;;;2.63;100.00;99729.03;5051492;28;20079;-58